createdAt,value
2019-03-15T00:00:45.168Z,5.90
2019-03-15T00:03:16.409Z,6.00
2019-03-15T00:05:55.646Z,6.00
2019-03-15T00:08:24.994Z,6.00
2019-03-15T00:10:54.749Z,6.00
2019-03-15T00:13:24.119Z,5.90
2019-03-15T00:15:53.471Z,6.00
2019-03-15T00:18:22.962Z,6.00
2019-03-15T00:20:57.326Z,6.10
2019-03-15T00:23:27.281Z,6.10
2019-03-15T00:25:56.169Z,6.10
2019-03-15T00:28:25.168Z,6.10
2019-03-15T00:30:55.094Z,6.10
2019-03-15T00:33:25.932Z,6.10
2019-03-15T00:35:55.641Z,6.10
2019-03-15T00:38:27.662Z,6.10
2019-03-15T00:40:58.503Z,6.20
2019-03-15T00:43:32.067Z,6.20
2019-03-15T00:46:01.830Z,6.20
2019-03-15T00:48:35.325Z,6.30
2019-03-15T00:51:07.100Z,6.30
2019-03-15T01:05:02.894Z,6.30
2019-03-15T01:07:47.066Z,6.30
2019-03-15T01:10:23.253Z,6.30
2019-03-15T01:25:11.239Z,6.30
2019-03-15T01:53:49.007Z,6.30
2019-03-15T01:56:45.125Z,6.30
2019-03-15T02:00:15.285Z,6.40
2019-03-15T02:07:11.538Z,6.40
2019-03-15T02:10:30.699Z,6.40
2019-03-15T02:13:17.090Z,6.30
2019-03-15T02:16:31.120Z,6.30
2019-03-15T02:19:10.402Z,6.30
2019-03-15T02:21:47.152Z,6.30
2019-03-15T02:24:45.203Z,6.40
2019-03-15T02:27:28.536Z,6.40
2019-03-15T02:30:17.367Z,6.40
2019-03-15T02:33:16.085Z,6.40
2019-03-15T02:36:00.519Z,6.40
2019-03-15T02:38:54.039Z,6.40
2019-03-15T02:41:48.209Z,6.40
2019-03-15T02:44:42.271Z,6.30
2019-03-15T02:47:32.769Z,6.30
2019-03-15T02:50:03.697Z,6.30
2019-03-15T02:52:56.660Z,6.20
2019-03-15T02:59:15.686Z,6.10
2019-03-15T03:02:00.669Z,6.10
2019-03-15T03:07:44.652Z,6.20
2019-03-15T03:10:40.634Z,6.20
2019-03-15T03:13:41.626Z,6.20
2019-03-15T03:16:42.599Z,6.20
2019-03-15T03:19:33.175Z,6.20
2019-03-15T03:22:07.054Z,6.20
2019-03-15T03:24:58.701Z,6.20
2019-03-15T03:27:57.565Z,6.20
2019-03-15T03:30:53.141Z,6.20
2019-03-15T03:33:27.322Z,6.20
2019-03-15T03:36:24.991Z,6.20
2019-03-15T03:45:51.022Z,6.30
2019-03-15T03:48:33.883Z,6.30
2019-03-15T03:51:30.210Z,6.30
2019-03-15T03:54:21.863Z,6.30
2019-03-15T03:57:02.854Z,6.30
2019-03-15T04:06:54.524Z,6.30
2019-03-15T04:09:32.436Z,6.30
2019-03-15T04:12:04.248Z,6.30
2019-03-15T04:15:09.843Z,6.30
2019-03-15T04:18:35.563Z,6.30
2019-03-15T04:22:09.214Z,6.30
2019-03-15T04:25:40.536Z,6.30
2019-03-15T04:28:40.962Z,6.30
2019-03-15T04:31:14.069Z,6.30
2019-03-15T04:33:54.257Z,6.30
2019-03-15T04:36:29.385Z,6.30
2019-03-15T04:39:42.302Z,6.30
2019-03-15T04:42:27.521Z,6.30
2019-03-15T04:45:07.762Z,6.30
2019-03-15T04:50:59.755Z,6.40
2019-03-15T04:54:05.808Z,6.40
2019-03-15T05:00:31.848Z,6.40
2019-03-15T05:03:42.670Z,6.40
2019-03-15T05:13:13.659Z,6.40
2019-03-15T05:15:50.538Z,6.40
2019-03-15T05:18:26.872Z,6.50
2019-03-15T05:21:19.267Z,6.50
2019-03-15T05:24:14.840Z,6.50
2019-03-15T05:27:13.178Z,6.60
2019-03-15T05:30:35.296Z,6.60
2019-03-15T05:33:09.719Z,6.60
2019-03-15T05:35:41.270Z,6.60
2019-03-15T05:38:14.389Z,6.60
2019-03-15T05:56:37.597Z,6.60
2019-03-15T06:12:54.280Z,6.60
2019-03-15T06:16:20.862Z,6.60
2019-03-15T06:23:25.598Z,6.50
2019-03-15T06:30:21.983Z,6.50
2019-03-15T06:36:29.944Z,6.50
2019-03-15T07:23:39.231Z,6.10
2019-03-15T07:26:09.424Z,6.10
2019-03-15T07:28:40.704Z,6.10
2019-03-15T07:31:28.079Z,6.20
2019-03-15T07:33:58.478Z,6.40
2019-03-15T07:36:28.798Z,6.50
2019-03-15T07:39:12.622Z,6.60
2019-03-15T07:41:45.824Z,6.60
2019-03-15T07:44:21.216Z,6.60
2019-03-15T07:47:07.755Z,6.60
2019-03-15T07:49:40.646Z,6.60
2019-03-15T07:52:12.356Z,6.60
2019-03-15T07:54:44.554Z,6.60
2019-03-15T07:57:19.995Z,6.60
2019-03-15T07:59:50.145Z,6.60
2019-03-15T08:02:25.214Z,6.60
2019-03-15T08:04:56.800Z,6.70
2019-03-15T08:07:36.429Z,6.70
2019-03-15T08:09:58.791Z,6.70
2019-03-15T08:12:28.248Z,6.70
2019-03-15T08:14:58.538Z,6.70
2019-03-15T08:17:31.506Z,6.70
2019-03-15T08:20:12.544Z,6.60
2019-03-15T08:22:45.282Z,6.60
2019-03-15T08:25:17.076Z,6.70
2019-03-15T08:27:46.729Z,6.70
2019-03-15T08:30:17.117Z,6.80
2019-03-15T08:32:50.102Z,6.90
2019-03-15T08:35:24.199Z,6.90
2019-03-15T08:37:53.822Z,7.00
2019-03-15T08:40:25.887Z,7.00
2019-03-15T08:42:56.011Z,7.00
2019-03-15T08:45:25.334Z,7.10
2019-03-15T08:47:55.427Z,7.10
2019-03-15T08:50:28.596Z,7.10
2019-03-15T08:52:59.127Z,7.10
2019-03-15T08:55:28.737Z,7.10
2019-03-15T09:00:58.572Z,7.20
2019-03-15T09:03:34.134Z,7.30
2019-03-15T09:06:05.411Z,7.40
2019-03-15T09:08:37.392Z,7.40
2019-03-15T09:11:12.190Z,7.50
2019-03-15T09:13:42.015Z,7.50
2019-03-15T09:16:19.738Z,7.50
2019-03-15T09:18:55.604Z,7.60
2019-03-15T09:22:04.354Z,7.60
2019-03-15T09:24:40.991Z,7.70
2019-03-15T09:27:18.365Z,7.80
2019-03-15T09:29:52.526Z,7.80
2019-03-15T09:32:49.409Z,7.80
2019-03-15T09:35:21.822Z,7.90
2019-03-15T09:37:54.255Z,7.90
2019-03-15T09:40:45.557Z,8.00
2019-03-15T09:43:21.098Z,8.00
2019-03-15T09:45:57.569Z,8.00
2019-03-15T09:49:08.386Z,8.00
2019-03-15T09:51:40.054Z,7.90
2019-03-15T09:54:19.643Z,7.90
2019-03-15T09:57:08.702Z,7.90
2019-03-15T09:59:39.754Z,7.90
2019-03-15T10:02:29.695Z,7.80
2019-03-15T10:05:10.824Z,7.70
2019-03-15T10:07:43.055Z,7.70
2019-03-15T10:10:25.180Z,7.70
2019-03-15T10:13:05.876Z,7.70
2019-03-15T10:15:37.165Z,7.60
2019-03-15T10:18:09.541Z,7.70
2019-03-15T10:20:40.552Z,7.80
2019-03-15T10:23:11.626Z,7.90
2019-03-15T10:25:48.400Z,8.00
2019-03-15T10:28:15.779Z,8.10
2019-03-15T10:30:59.913Z,8.10
2019-03-15T10:33:33.600Z,8.30
2019-03-15T10:36:13.394Z,8.30
2019-03-15T10:39:01.440Z,8.40
2019-03-15T10:41:52.000Z,8.50
2019-03-15T10:44:39.762Z,8.60
2019-03-15T10:48:09.759Z,8.70
2019-03-15T10:51:49.502Z,8.70
2019-03-15T10:55:01.294Z,8.80
2019-03-15T10:57:53.100Z,8.90
2019-03-15T11:00:26.940Z,9.00
2019-03-15T11:02:56.685Z,9.00
2019-03-15T11:05:27.199Z,9.00
2019-03-15T11:08:24.324Z,9.00
2019-03-15T11:11:17.933Z,9.00
2019-03-15T11:17:09.901Z,9.30
2019-03-15T11:23:45.154Z,9.30
2019-03-15T11:30:12.062Z,9.30
2019-03-15T11:32:45.661Z,9.30
2019-03-15T11:35:20.948Z,9.20
2019-03-15T11:37:59.440Z,9.20
2019-03-15T11:40:29.907Z,9.30
2019-03-15T11:43:04.119Z,9.40
2019-03-15T11:45:38.535Z,9.50
2019-03-15T11:48:16.559Z,9.70
2019-03-15T11:50:48.176Z,9.80
2019-03-15T11:53:50.758Z,9.90
2019-03-15T11:56:50.717Z,9.90
2019-03-15T11:59:22.887Z,9.80
2019-03-15T12:02:04.030Z,9.80
2019-03-15T12:04:31.606Z,9.70
2019-03-15T12:07:06.696Z,9.60
2019-03-15T12:09:41.743Z,9.50
2019-03-15T12:12:17.493Z,9.40
2019-03-15T12:14:55.354Z,9.30
2019-03-15T12:17:30.997Z,9.20
2019-03-15T12:20:11.482Z,9.10
2019-03-15T12:22:43.214Z,9.00
2019-03-15T12:28:19.460Z,8.90
2019-03-15T12:30:57.539Z,8.80
2019-03-15T12:33:32.074Z,8.80
2019-03-15T12:36:07.538Z,8.80
2019-03-15T12:38:58.419Z,8.90
2019-03-15T12:41:45.622Z,9.00
2019-03-15T12:44:19.020Z,8.90
2019-03-15T12:47:14.083Z,8.70
2019-03-15T12:49:45.397Z,8.40
2019-03-15T12:53:20.656Z,8.10
2019-03-15T12:56:14.458Z,7.90
2019-03-15T12:58:46.289Z,7.70
2019-03-15T13:01:36.153Z,7.60
2019-03-15T13:04:10.309Z,7.60
2019-03-15T13:06:41.385Z,7.60
2019-03-15T13:09:15.119Z,7.50
2019-03-15T13:12:00.009Z,7.40
2019-03-15T13:14:33.938Z,7.40
2019-03-15T13:17:07.927Z,7.30
2019-03-15T13:19:39.116Z,7.20
2019-03-15T13:22:08.364Z,7.10
2019-03-15T13:24:41.096Z,7.00
2019-03-15T13:27:11.733Z,6.90
2019-03-15T13:29:42.495Z,6.90
2019-03-15T13:32:11.600Z,6.90
2019-03-15T13:34:43.028Z,7.00
2019-03-15T13:37:15.704Z,7.00
2019-03-15T13:40:23.302Z,7.00
2019-03-15T13:42:59.818Z,7.10
2019-03-15T13:45:32.824Z,7.00
2019-03-15T13:48:06.994Z,7.10
2019-03-15T13:51:25.378Z,7.20
2019-03-15T13:53:54.717Z,7.20
2019-03-15T13:56:26.891Z,7.20
2019-03-15T13:58:57.741Z,7.20
2019-03-15T14:01:29.872Z,7.20
2019-03-15T14:03:59.839Z,7.10
2019-03-15T14:06:33.901Z,7.00
2019-03-15T14:09:20.335Z,6.90
2019-03-15T14:12:00.107Z,6.80
2019-03-15T14:14:36.143Z,6.80
2019-03-15T14:17:07.098Z,6.70
2019-03-15T14:19:38.231Z,6.70
2019-03-15T14:22:13.462Z,6.70
2019-03-15T14:24:43.263Z,6.60
2019-03-15T14:27:13.357Z,6.60
2019-03-15T14:29:43.397Z,6.40
2019-03-15T14:32:14.921Z,6.40
2019-03-15T14:34:44.607Z,6.30
2019-03-15T14:37:16.096Z,6.20
2019-03-15T14:39:45.590Z,6.10
2019-03-15T14:42:14.948Z,6.10
2019-03-15T14:44:44.092Z,6.10
2019-03-15T14:47:13.263Z,6.10
2019-03-15T14:49:43.487Z,6.00
2019-03-15T14:52:15.029Z,6.00
2019-03-15T14:54:44.155Z,5.90
2019-03-15T14:57:25.183Z,5.90
2019-03-15T15:00:03.252Z,5.80
2019-03-15T15:02:44.413Z,5.80
2019-03-15T15:05:16.750Z,5.80
2019-03-15T15:07:49.791Z,5.70
2019-03-15T15:10:25.014Z,5.60
2019-03-15T15:12:55.436Z,5.50
2019-03-15T15:15:27.329Z,5.40
2019-03-15T15:18:04.392Z,5.30
2019-03-15T15:20:34.230Z,5.30
2019-03-15T15:23:10.046Z,5.20
2019-03-15T15:25:42.696Z,5.20
2019-03-15T15:28:32.032Z,5.10
2019-03-15T15:31:04.259Z,5.10
2019-03-15T15:33:35.445Z,5.10
2019-03-15T15:36:05.790Z,5.20
2019-03-15T15:38:37.699Z,5.20
2019-03-15T15:41:11.281Z,5.30
2019-03-15T15:43:40.421Z,5.30
2019-03-15T15:46:10.220Z,5.30
2019-03-15T15:48:40.855Z,5.40
2019-03-15T15:51:12.137Z,5.50
2019-03-15T15:53:42.313Z,5.50
2019-03-15T15:56:11.451Z,5.60
2019-03-15T15:58:41.841Z,5.60
2019-03-15T16:01:22.300Z,5.70
2019-03-15T16:03:52.436Z,5.70
2019-03-15T16:06:22.567Z,5.80
2019-03-15T16:08:53.316Z,5.90
2019-03-15T16:11:25.748Z,6.00
2019-03-15T16:13:56.338Z,6.00
2019-03-15T16:16:26.203Z,6.10
2019-03-15T16:18:59.228Z,6.20
2019-03-15T16:21:33.546Z,6.30
2019-03-15T16:24:04.254Z,6.40
2019-03-15T16:26:35.972Z,6.40
2019-03-15T16:29:05.238Z,6.50
2019-03-15T16:31:37.562Z,6.50
2019-03-15T16:34:11.345Z,6.60
2019-03-15T16:36:41.814Z,6.60
2019-03-15T16:39:11.110Z,6.60
2019-03-15T16:41:41.137Z,6.60
2019-03-15T16:47:35.887Z,6.60
2019-03-15T16:50:07.010Z,6.60
2019-03-15T16:52:36.771Z,6.50
2019-03-15T16:55:26.582Z,6.40
2019-03-15T16:57:57.206Z,6.40
2019-03-15T17:00:31.095Z,6.40
2019-03-15T17:03:00.382Z,6.40
2019-03-15T17:05:29.955Z,6.40
2019-03-15T17:08:00.224Z,6.50
2019-03-15T17:10:32.862Z,6.50
2019-03-15T17:13:03.387Z,6.50
2019-03-15T17:15:33.303Z,6.40
2019-03-15T17:18:06.073Z,6.40
2019-03-15T17:20:36.650Z,6.40
2019-03-15T17:23:05.805Z,6.40
2019-03-15T17:25:36.758Z,6.40
2019-03-15T17:28:10.414Z,6.40
2019-03-15T17:30:42.687Z,6.40
2019-03-15T17:33:13.004Z,6.30
2019-03-15T17:35:42.045Z,6.30
2019-03-15T17:38:48.385Z,6.30
2019-03-15T17:44:14.354Z,6.30
2019-03-15T17:46:51.116Z,6.20
2019-03-15T17:49:20.391Z,6.20
2019-03-15T17:51:54.753Z,6.20
2019-03-15T17:54:34.770Z,6.20
2019-03-15T18:00:34.393Z,6.10
2019-03-15T18:03:20.802Z,6.10
2019-03-15T18:05:57.566Z,6.10
2019-03-15T18:08:51.061Z,6.00
2019-03-15T18:11:32.625Z,6.00
2019-03-15T18:14:27.994Z,5.90
2019-03-15T18:17:15.233Z,5.90
2019-03-15T18:20:15.675Z,5.80
2019-03-15T18:22:53.653Z,5.80
2019-03-15T18:25:31.628Z,5.70
2019-03-15T18:28:17.494Z,5.60
2019-03-15T18:31:17.261Z,5.50
2019-03-15T18:33:50.106Z,5.50
2019-03-15T18:36:51.503Z,5.50
2019-03-15T18:39:33.816Z,5.40
2019-03-15T18:42:12.025Z,5.50
2019-03-15T18:45:06.655Z,5.40
2019-03-15T18:47:41.280Z,5.50
2019-03-15T18:50:23.418Z,5.40
2019-03-15T18:53:26.022Z,5.40
2019-03-15T18:55:55.335Z,5.40
2019-03-15T18:58:26.269Z,5.30
2019-03-15T19:01:15.049Z,5.40
2019-03-15T19:03:46.522Z,5.40
2019-03-15T19:06:27.981Z,5.30
2019-03-15T19:08:57.709Z,5.30
2019-03-15T19:11:40.397Z,5.40
2019-03-15T19:14:13.144Z,5.40
2019-03-15T19:16:44.831Z,5.50
2019-03-15T19:19:15.890Z,5.50
2019-03-15T19:21:52.257Z,5.50
2019-03-15T19:24:23.411Z,5.50
2019-03-15T19:26:55.032Z,5.50
2019-03-15T19:29:31.070Z,5.50
2019-03-15T19:32:10.866Z,5.60
2019-03-15T19:34:44.231Z,5.60
2019-03-15T19:37:19.610Z,5.60
2019-03-15T19:39:53.722Z,5.60
2019-03-15T19:42:46.270Z,5.70
2019-03-15T19:45:17.061Z,5.80
2019-03-15T19:47:54.080Z,5.70
2019-03-15T19:50:47.504Z,5.60
2019-03-15T19:53:26.010Z,5.50
2019-03-15T19:56:03.001Z,5.40
2019-03-15T19:58:54.151Z,5.30
2019-03-15T20:01:29.058Z,5.10
2019-03-15T20:04:03.970Z,5.00
2019-03-15T20:06:49.768Z,4.80
2019-03-15T20:09:26.920Z,4.70
2019-03-15T20:12:10.290Z,4.60
2019-03-15T20:14:53.324Z,4.50
2019-03-15T20:17:28.603Z,4.30
2019-03-15T20:20:04.037Z,4.20
2019-03-15T20:22:38.150Z,4.30
2019-03-15T20:25:23.678Z,4.20
2019-03-15T20:27:56.668Z,4.20
2019-03-15T20:30:32.318Z,4.10
2019-03-15T20:33:02.677Z,4.20
2019-03-15T20:35:47.199Z,4.20
2019-03-15T20:38:39.547Z,4.10
2019-03-15T20:41:15.303Z,4.20
2019-03-15T20:43:47.072Z,4.20
2019-03-15T20:46:20.378Z,4.20
2019-03-15T20:48:51.553Z,4.20
2019-03-15T20:51:32.249Z,4.30
2019-03-15T20:54:18.220Z,4.30
2019-03-15T20:56:55.107Z,4.30
2019-03-15T21:00:03.084Z,4.40
2019-03-15T21:06:33.754Z,4.40
2019-03-15T21:09:21.289Z,4.40
2019-03-15T21:12:15.468Z,4.40
2019-03-15T21:14:50.840Z,4.40
2019-03-15T21:17:26.244Z,4.40
2019-03-15T21:19:56.304Z,4.40
2019-03-15T21:22:31.646Z,4.40
2019-03-15T21:25:30.018Z,4.40
2019-03-15T21:28:20.182Z,4.50
2019-03-15T21:30:50.107Z,4.50
2019-03-15T21:33:20.506Z,4.60
2019-03-15T21:35:50.692Z,4.60
2019-03-15T21:38:22.206Z,4.60
2019-03-15T21:40:53.093Z,4.60
2019-03-15T21:43:22.245Z,4.60
2019-03-15T21:45:54.877Z,4.60
2019-03-15T21:48:24.132Z,4.60
2019-03-15T21:51:04.937Z,4.60
2019-03-15T21:53:36.876Z,4.70
2019-03-15T21:56:07.994Z,4.70
2019-03-15T21:58:36.996Z,4.70
2019-03-15T22:01:07.410Z,4.70
2019-03-15T22:03:36.501Z,4.70
2019-03-15T22:06:06.811Z,4.70
2019-03-15T22:08:36.017Z,4.80
2019-03-15T22:11:20.683Z,4.70
2019-03-15T22:13:41.389Z,4.80
2019-03-15T22:16:13.934Z,4.80
2019-03-15T22:18:42.913Z,4.80
2019-03-15T22:21:12.329Z,4.90
2019-03-15T22:23:41.310Z,4.90
2019-03-15T22:26:13.384Z,4.90
2019-03-15T22:28:42.576Z,4.90
2019-03-15T22:31:18.092Z,4.80
2019-03-15T22:33:47.957Z,4.80
2019-03-15T22:36:16.941Z,4.80
2019-03-15T22:38:45.976Z,4.80
2019-03-15T22:41:15.041Z,4.80
2019-03-15T22:43:43.944Z,4.80
2019-03-15T22:46:13.154Z,4.70
2019-03-15T22:48:42.192Z,4.70
2019-03-15T22:51:14.022Z,4.80
2019-03-15T22:53:43.401Z,4.80
2019-03-15T22:56:12.683Z,4.80
2019-03-15T22:58:42.624Z,4.80
2019-03-15T23:01:11.835Z,4.80
2019-03-15T23:03:42.113Z,4.80
2019-03-15T23:06:11.757Z,4.80
2019-03-15T23:08:40.959Z,4.80
2019-03-15T23:11:09.876Z,4.80
2019-03-15T23:13:39.047Z,4.80
2019-03-15T23:16:07.995Z,4.80
2019-03-15T23:18:38.146Z,4.80
2019-03-15T23:21:07.722Z,4.80
2019-03-15T23:23:36.658Z,4.80
2019-03-15T23:26:05.853Z,4.80
2019-03-15T23:28:35.140Z,4.80
2019-03-15T23:31:05.182Z,4.80
2019-03-15T23:33:34.386Z,4.80
2019-03-15T23:36:03.601Z,4.80
2019-03-15T23:38:32.533Z,4.80
2019-03-15T23:41:01.919Z,4.70
2019-03-15T23:43:31.882Z,4.70
2019-03-15T23:46:05.079Z,4.70
2019-03-15T23:48:35.308Z,4.70
2019-03-15T23:51:06.109Z,4.70
2019-03-15T23:53:36.891Z,4.70
2019-03-15T23:56:06.602Z,4.70
2019-03-15T23:58:35.607Z,4.70
